Aérodrome :
LOGIN :

S'inscrire | Disclaimer

   EN    FR    IT 

 










Légende :    VFR   VFR Marginal   IFR   IFR Intensif   IFR Très Intensif
Visi : 
Plafond : 
>= 8 km
>= 3000ft
5 à 8 km
1000 à 3000 ft
1500m à 5 km
500 à 1000 ft
800 à 1500m
200 à 500 ft
< 800m
< 200 ft
Symboles :   Orages  Brouillard  Fortes neiges  Fortes précipitations  Vent > 20 kt
SIGMETs :   Divers  Orages  Givrage  Turbulence  Onde Orograph.  Cendres Volcan.






- Altitude de l'aérodrome : 844 ft
- Code IATA : OSR


LKMT - Ostrava-Mosnov

DERNIER METAR :
  • 140830Z VRB02KT 9999 FEW014 04/01 Q1012 NOSIG

METARs EXPIRÉS :
  • 140800Z 00000KT CAVOK 05/01 Q1011 NOSIG
  • 140730Z VRB02KT CAVOK 04/01 Q1011 NOSIG
  • 140700Z 14002KT CAVOK 03/01 Q1011 NOSIG
  • 140630Z 20003KT CAVOK 02/00 Q1011 NOSIG
  • 140600Z 23006KT 9999 FEW017 02/M00 Q1011 NOSIG

TAF TAF LKMT
Valide du 14 à 06h jusqu'au 15 à 12h UTC


140500Z 1406/1512 23006KT 7000 BKN015
TEMPO 1406/1409 3500 BR BKN007
BECMG 1409/1411 9999 SCT020
BECMG 1413/1415 02004KT
BECMG 1416/1419 5000 BR BKN013
TEMPO 1421/1509 2000 BR BKN005
BECMG 1509/1511 7000 SCT015



MET'MAP, la Météo Aéronautique d'un coup d'oeil ! - Copyright ORBIFLY Décembre 2007 - Disclaimer

ORBIFLY MET'MAP TEAM :

Programmation & Développement : Alexandra Zaïnal
Conception & Développement : Baudouin d'Aumeries
Co-Programmation & Développement : Marc-Olivier Méhu
Soutien technique & logistique : Manuel Goepfert

Contact : metmap@orbifly.com




SOURCES & CREDITS :

   NOAA